sensor_id;sensor_type;location;lat;lon;timestamp;temperature;humidity
11132;DHT22;5620;53.570;9.718;2023-04-25T00:02:09;8.50;1.00
11132;DHT22;5620;53.570;9.718;2023-04-25T00:04:35;8.40;1.00
11132;DHT22;5620;53.570;9.718;2023-04-25T00:07:01;8.40;1.00
11132;DHT22;5620;53.570;9.718;2023-04-25T00:09:28;8.30;1.00
11132;DHT22;5620;53.570;9.718;2023-04-25T00:11:55;8.30;1.00
11132;DHT22;5620;53.570;9.718;2023-04-25T00:14:20;8.30;1.00
11132;DHT22;5620;53.570;9.718;2023-04-25T00:16:47;8.30;1.00
11132;DHT22;5620;53.570;9.718;2023-04-25T00:19:12;8.30;1.00
11132;DHT22;5620;53.570;9.718;2023-04-25T00:21:39;8.30;1.00
11132;DHT22;5620;53.570;9.718;2023-04-25T00:24:05;8.40;1.00
11132;DHT22;5620;53.570;9.718;2023-04-25T00:26:31;8.40;1.00
11132;DHT22;5620;53.570;9.718;2023-04-25T00:28:56;8.50;1.00
11132;DHT22;5620;53.570;9.718;2023-04-25T00:31:23;8.50;1.00
11132;DHT22;5620;53.570;9.718;2023-04-25T00:33:49;8.40;1.00
11132;DHT22;5620;53.570;9.718;2023-04-25T00:36:15;8.40;1.00
11132;DHT22;5620;53.570;9.718;2023-04-25T00:38:41;8.40;1.00
11132;DHT22;5620;53.570;9.718;2023-04-25T00:41:07;8.40;1.00
11132;DHT22;5620;53.570;9.718;2023-04-25T00:43:34;8.30;1.00
11132;DHT22;5620;53.570;9.718;2023-04-25T00:46:02;8.30;1.00
11132;DHT22;5620;53.570;9.718;2023-04-25T00:48:28;8.30;1.00
11132;DHT22;5620;53.570;9.718;2023-04-25T00:50:58;8.30;1.00
11132;DHT22;5620;53.570;9.718;2023-04-25T00:53:28;8.20;1.00
11132;DHT22;5620;53.570;9.718;2023-04-25T00:55:55;8.20;1.00
11132;DHT22;5620;53.570;9.718;2023-04-25T00:58:21;8.10;1.00
11132;DHT22;5620;53.570;9.718;2023-04-25T01:01:00;8.10;1.00
11132;DHT22;5620;53.570;9.718;2023-04-25T01:03:26;8.10;1.00
11132;DHT22;5620;53.570;9.718;2023-04-25T01:05:52;8.10;99.90
11132;DHT22;5620;53.570;9.718;2023-04-25T01:08:24;8.00;99.90
11132;DHT22;5620;53.570;9.718;2023-04-25T01:10:52;8.00;1.00
11132;DHT22;5620;53.570;9.718;2023-04-25T01:13:17;8.00;1.00
11132;DHT22;5620;53.570;9.718;2023-04-25T01:15:43;8.00;1.00
11132;DHT22;5620;53.570;9.718;2023-04-25T01:18:08;7.90;99.90
11132;DHT22;5620;53.570;9.718;2023-04-25T01:20:35;7.90;99.90
11132;DHT22;5620;53.570;9.718;2023-04-25T01:23:05;7.90;1.00
11132;DHT22;5620;53.570;9.718;2023-04-25T01:25:31;7.90;1.00
11132;DHT22;5620;53.570;9.718;2023-04-25T01:28:00;8.00;1.00
11132;DHT22;5620;53.570;9.718;2023-04-25T01:33:30;8.10;1.00
11132;DHT22;5620;53.570;9.718;2023-04-25T01:35:57;8.20;1.00
11132;DHT22;5620;53.570;9.718;2023-04-25T01:38:23;8.20;1.00
11132;DHT22;5620;53.570;9.718;2023-04-25T01:40:51;8.20;1.00
11132;DHT22;5620;53.570;9.718;2023-04-25T01:43:18;8.20;1.00
11132;DHT22;5620;53.570;9.718;2023-04-25T01:45:44;8.20;1.00
11132;DHT22;5620;53.570;9.718;2023-04-25T01:48:13;8.20;1.00
11132;DHT22;5620;53.570;9.718;2023-04-25T01:50:41;8.20;1.00
11132;DHT22;5620;53.570;9.718;2023-04-25T01:53:09;8.20;1.00
11132;DHT22;5620;53.570;9.718;2023-04-25T01:55:35;8.10;1.00
11132;DHT22;5620;53.570;9.718;2023-04-25T01:58:02;8.10;1.00
11132;DHT22;5620;53.570;9.718;2023-04-25T02:00:31;8.10;1.00
11132;DHT22;5620;53.570;9.718;2023-04-25T02:02:59;8.00;99.90
11132;DHT22;5620;53.570;9.718;2023-04-25T02:05:26;8.00;99.90
11132;DHT22;5620;53.570;9.718;2023-04-25T02:07:53;7.90;99.90
11132;DHT22;5620;53.570;9.718;2023-04-25T02:13:23;7.90;73.70
11132;DHT22;5620;53.570;9.718;2023-04-25T02:15:49;7.90;1.00
11132;DHT22;5620;53.570;9.718;2023-04-25T02:18:17;8.00;1.00
11132;DHT22;5620;53.570;9.718;2023-04-25T02:20:43;8.00;1.00
11132;DHT22;5620;53.570;9.718;2023-04-25T02:23:13;8.00;1.00
11132;DHT22;5620;53.570;9.718;2023-04-25T02:25:38;8.00;1.00
11132;DHT22;5620;53.570;9.718;2023-04-25T02:28:04;8.00;99.90
11132;DHT22;5620;53.570;9.718;2023-04-25T02:30:34;8.00;54.00
11132;DHT22;5620;53.570;9.718;2023-04-25T02:33:00;8.00;1.00
11132;DHT22;5620;53.570;9.718;2023-04-25T02:35:27;8.00;99.90
11132;DHT22;5620;53.570;9.718;2023-04-25T02:37:53;8.00;1.00
11132;DHT22;5620;53.570;9.718;2023-04-25T02:40:19;8.00;40.00
11132;DHT22;5620;53.570;9.718;2023-04-25T02:42:49;8.00;1.00
11132;DHT22;5620;53.570;9.718;2023-04-25T02:45:16;7.90;99.90
11132;DHT22;5620;53.570;9.718;2023-04-25T02:47:43;7.90;99.90
11132;DHT22;5620;53.570;9.718;2023-04-25T02:50:08;7.90;99.90
11132;DHT22;5620;53.570;9.718;2023-04-25T02:52:35;7.90;1.00
11132;DHT22;5620;53.570;9.718;2023-04-25T02:55:04;7.90;97.10
11132;DHT22;5620;53.570;9.718;2023-04-25T02:57:32;7.80;1.00
11132;DHT22;5620;53.570;9.718;2023-04-25T02:59:59;7.80;1.00
11132;DHT22;5620;53.570;9.718;2023-04-25T03:02:25;7.80;1.00
11132;DHT22;5620;53.570;9.718;2023-04-25T03:04:51;7.70;99.90
11132;DHT22;5620;53.570;9.718;2023-04-25T03:07:17;7.60;25.60
11132;DHT22;5620;53.570;9.718;2023-04-25T03:09:48;7.60;1.00
11132;DHT22;5620;53.570;9.718;2023-04-25T03:15:35;7.30;1.00
11132;DHT22;5620;53.570;9.718;2023-04-25T03:24:59;6.90;1.00
11132;DHT22;5620;53.570;9.718;2023-04-25T03:31:22;7.00;99.20
11132;DHT22;5620;53.570;9.718;2023-04-25T03:37:47;7.20;99.90
11132;DHT22;5620;53.570;9.718;2023-04-25T03:40:57;7.20;1.00
11132;DHT22;5620;53.570;9.718;2023-04-25T03:49:21;7.10;1.00
11132;DHT22;5620;53.570;9.718;2023-04-25T03:51:48;7.10;1.00
11132;DHT22;5620;53.570;9.718;2023-04-25T03:54:14;7.10;1.00
11132;DHT22;5620;53.570;9.718;2023-04-25T03:56:39;7.10;1.00
11132;DHT22;5620;53.570;9.718;2023-04-25T03:59:06;7.20;1.00
11132;DHT22;5620;53.570;9.718;2023-04-25T04:01:32;7.20;1.00
11132;DHT22;5620;53.570;9.718;2023-04-25T04:04:00;7.20;1.00
11132;DHT22;5620;53.570;9.718;2023-04-25T04:06:25;7.20;1.00
11132;DHT22;5620;53.570;9.718;2023-04-25T04:08:51;7.20;1.00
11132;DHT22;5620;53.570;9.718;2023-04-25T04:11:19;7.20;1.00
11132;DHT22;5620;53.570;9.718;2023-04-25T04:13:46;7.20;1.00
11132;DHT22;5620;53.570;9.718;2023-04-25T04:16:12;7.10;1.00
11132;DHT22;5620;53.570;9.718;2023-04-25T04:18:39;7.00;1.00
11132;DHT22;5620;53.570;9.718;2023-04-25T04:21:05;7.00;1.00
11132;DHT22;5620;53.570;9.718;2023-04-25T04:23:31;6.90;1.00
11132;DHT22;5620;53.570;9.718;2023-04-25T04:25:56;6.90;1.00
11132;DHT22;5620;53.570;9.718;2023-04-25T04:28:24;6.90;1.00
11132;DHT22;5620;53.570;9.718;2023-04-25T04:30:50;6.90;1.00
11132;DHT22;5620;53.570;9.718;2023-04-25T04:33:18;7.00;1.00
11132;DHT22;5620;53.570;9.718;2023-04-25T04:35:45;7.10;1.00
11132;DHT22;5620;53.570;9.718;2023-04-25T04:38:10;7.10;1.00
11132;DHT22;5620;53.570;9.718;2023-04-25T04:40:36;7.20;1.00
11132;DHT22;5620;53.570;9.718;2023-04-25T04:43:02;7.30;1.00
11132;DHT22;5620;53.570;9.718;2023-04-25T04:45:27;7.30;1.00
11132;DHT22;5620;53.570;9.718;2023-04-25T04:47:53;7.40;1.00
11132;DHT22;5620;53.570;9.718;2023-04-25T04:50:19;7.50;1.00
11132;DHT22;5620;53.570;9.718;2023-04-25T04:52:46;7.40;1.00
11132;DHT22;5620;53.570;9.718;2023-04-25T04:55:13;7.40;99.90
11132;DHT22;5620;53.570;9.718;2023-04-25T04:57:39;7.50;99.90
11132;DHT22;5620;53.570;9.718;2023-04-25T05:00:07;7.50;99.90
11132;DHT22;5620;53.570;9.718;2023-04-25T05:02:33;7.60;99.90
11132;DHT22;5620;53.570;9.718;2023-04-25T05:05:01;7.60;99.90
11132;DHT22;5620;53.570;9.718;2023-04-25T05:07:28;7.60;99.90
11132;DHT22;5620;53.570;9.718;2023-04-25T05:09:54;7.60;99.90
11132;DHT22;5620;53.570;9.718;2023-04-25T05:12:21;7.60;99.90
11132;DHT22;5620;53.570;9.718;2023-04-25T05:14:47;7.50;99.90
11132;DHT22;5620;53.570;9.718;2023-04-25T05:17:13;7.30;94.00
11132;DHT22;5620;53.570;9.718;2023-04-25T05:19:40;7.10;86.40
11132;DHT22;5620;53.570;9.718;2023-04-25T05:22:06;7.00;94.70
11132;DHT22;5620;53.570;9.718;2023-04-25T05:24:32;7.00;99.90
11132;DHT22;5620;53.570;9.718;2023-04-25T05:26:58;7.10;99.90
11132;DHT22;5620;53.570;9.718;2023-04-25T05:29:24;7.10;99.90
11132;DHT22;5620;53.570;9.718;2023-04-25T05:31:49;7.30;99.90
11132;DHT22;5620;53.570;9.718;2023-04-25T05:34:16;7.40;99.90
11132;DHT22;5620;53.570;9.718;2023-04-25T05:36:43;7.50;99.90
11132;DHT22;5620;53.570;9.718;2023-04-25T05:39:09;7.60;99.90
11132;DHT22;5620;53.570;9.718;2023-04-25T05:41:39;7.70;99.90
11132;DHT22;5620;53.570;9.718;2023-04-25T05:44:04;7.90;99.90
11132;DHT22;5620;53.570;9.718;2023-04-25T05:46:31;8.00;99.90
11132;DHT22;5620;53.570;9.718;2023-04-25T05:48:57;8.20;99.90
11132;DHT22;5620;53.570;9.718;2023-04-25T05:51:27;8.30;99.90
11132;DHT22;5620;53.570;9.718;2023-04-25T05:53:54;8.40;99.90
11132;DHT22;5620;53.570;9.718;2023-04-25T05:56:21;8.50;99.90
11132;DHT22;5620;53.570;9.718;2023-04-25T05:58:46;8.50;99.90
11132;DHT22;5620;53.570;9.718;2023-04-25T06:01:13;8.50;95.90
11132;DHT22;5620;53.570;9.718;2023-04-25T06:03:40;8.50;95.20
11132;DHT22;5620;53.570;9.718;2023-04-25T06:06:06;8.50;94.00
11132;DHT22;5620;53.570;9.718;2023-04-25T06:08:34;8.50;92.30
11132;DHT22;5620;53.570;9.718;2023-04-25T06:10:59;8.60;91.30
11132;DHT22;5620;53.570;9.718;2023-04-25T06:13:26;8.80;77.30
11132;DHT22;5620;53.570;9.718;2023-04-25T06:15:52;8.70;28.90
11132;DHT22;5620;53.570;9.718;2023-04-25T06:18:18;8.60;24.00
11132;DHT22;5620;53.570;9.718;2023-04-25T06:20:45;8.60;39.30
11132;DHT22;5620;53.570;9.718;2023-04-25T06:23:15;8.80;51.30
11132;DHT22;5620;53.570;9.718;2023-04-25T06:25:41;9.00;40.90
11132;DHT22;5620;53.570;9.718;2023-04-25T06:28:07;9.10;7.40
11132;DHT22;5620;53.570;9.718;2023-04-25T06:30:32;9.20;1.00
11132;DHT22;5620;53.570;9.718;2023-04-25T06:33:00;9.20;1.00
11132;DHT22;5620;53.570;9.718;2023-04-25T06:35:26;9.20;1.00
11132;DHT22;5620;53.570;9.718;2023-04-25T06:37:53;9.20;1.00
11132;DHT22;5620;53.570;9.718;2023-04-25T06:40:18;9.30;1.00
11132;DHT22;5620;53.570;9.718;2023-04-25T06:42:44;9.30;1.00
11132;DHT22;5620;53.570;9.718;2023-04-25T06:45:11;9.30;1.00
11132;DHT22;5620;53.570;9.718;2023-04-25T06:47:37;9.30;1.00
11132;DHT22;5620;53.570;9.718;2023-04-25T06:50:04;9.30;1.00
11132;DHT22;5620;53.570;9.718;2023-04-25T06:52:31;9.20;1.00
11132;DHT22;5620;53.570;9.718;2023-04-25T06:54:58;9.30;1.00
11132;DHT22;5620;53.570;9.718;2023-04-25T06:57:23;9.30;1.00
11132;DHT22;5620;53.570;9.718;2023-04-25T06:59:50;9.40;1.00
11132;DHT22;5620;53.570;9.718;2023-04-25T07:02:16;9.60;1.00
11132;DHT22;5620;53.570;9.718;2023-04-25T07:04:43;9.70;1.00
11132;DHT22;5620;53.570;9.718;2023-04-25T07:07:09;9.90;1.00
11132;DHT22;5620;53.570;9.718;2023-04-25T07:09:36;9.80;99.90
11132;DHT22;5620;53.570;9.718;2023-04-25T07:12:03;9.70;99.90
11132;DHT22;5620;53.570;9.718;2023-04-25T07:14:29;9.50;99.90
11132;DHT22;5620;53.570;9.718;2023-04-25T07:16:54;9.50;99.90
11132;DHT22;5620;53.570;9.718;2023-04-25T07:19:20;9.60;99.90
11132;DHT22;5620;53.570;9.718;2023-04-25T07:21:46;9.60;99.90
11132;DHT22;5620;53.570;9.718;2023-04-25T07:24:12;9.70;99.90
11132;DHT22;5620;53.570;9.718;2023-04-25T07:26:40;9.80;99.90
11132;DHT22;5620;53.570;9.718;2023-04-25T07:29:06;10.10;99.90
11132;DHT22;5620;53.570;9.718;2023-04-25T07:31:31;10.30;99.90
11132;DHT22;5620;53.570;9.718;2023-04-25T07:33:58;10.40;99.90
11132;DHT22;5620;53.570;9.718;2023-04-25T07:36:26;10.60;99.90
11132;DHT22;5620;53.570;9.718;2023-04-25T07:38:52;10.80;99.90
11132;DHT22;5620;53.570;9.718;2023-04-25T07:41:17;10.80;99.90
11132;DHT22;5620;53.570;9.718;2023-04-25T07:43:43;10.90;99.90
11132;DHT22;5620;53.570;9.718;2023-04-25T07:46:08;10.80;99.90
11132;DHT22;5620;53.570;9.718;2023-04-25T07:48:35;10.80;99.90
11132;DHT22;5620;53.570;9.718;2023-04-25T07:51:00;10.90;99.90
11132;DHT22;5620;53.570;9.718;2023-04-25T07:53:26;11.20;99.90
11132;DHT22;5620;53.570;9.718;2023-04-25T07:55:52;11.40;99.90
11132;DHT22;5620;53.570;9.718;2023-04-25T07:58:19;11.50;99.90
11132;DHT22;5620;53.570;9.718;2023-04-25T08:00:45;11.50;99.90
11132;DHT22;5620;53.570;9.718;2023-04-25T08:03:11;11.50;99.90
11132;DHT22;5620;53.570;9.718;2023-04-25T08:05:41;11.70;99.90
11132;DHT22;5620;53.570;9.718;2023-04-25T08:08:10;11.70;99.90
11132;DHT22;5620;53.570;9.718;2023-04-25T08:10:37;11.80;99.90
11132;DHT22;5620;53.570;9.718;2023-04-25T08:13:02;11.60;99.90
11132;DHT22;5620;53.570;9.718;2023-04-25T08:15:28;11.40;99.90
11132;DHT22;5620;53.570;9.718;2023-04-25T08:17:53;11.10;99.90
11132;DHT22;5620;53.570;9.718;2023-04-25T08:20:19;10.90;99.90
11132;DHT22;5620;53.570;9.718;2023-04-25T08:22:49;10.80;99.90
11132;DHT22;5620;53.570;9.718;2023-04-25T08:25:14;10.80;99.90
11132;DHT22;5620;53.570;9.718;2023-04-25T08:27:40;10.90;99.90
11132;DHT22;5620;53.570;9.718;2023-04-25T08:30:07;11.20;99.90
11132;DHT22;5620;53.570;9.718;2023-04-25T08:32:37;11.40;99.90
11132;DHT22;5620;53.570;9.718;2023-04-25T08:35:02;11.50;99.90
11132;DHT22;5620;53.570;9.718;2023-04-25T08:37:29;11.60;99.90
11132;DHT22;5620;53.570;9.718;2023-04-25T08:39:56;11.40;99.90
11132;DHT22;5620;53.570;9.718;2023-04-25T08:42:24;10.60;99.90
11132;DHT22;5620;53.570;9.718;2023-04-25T08:44:53;9.50;99.90
11132;DHT22;5620;53.570;9.718;2023-04-25T08:47:22;8.40;99.90
11132;DHT22;5620;53.570;9.718;2023-04-25T08:49:48;7.90;99.90
11132;DHT22;5620;53.570;9.718;2023-04-25T08:52:22;7.40;99.90
11132;DHT22;5620;53.570;9.718;2023-04-25T08:54:49;7.10;1.00
11132;DHT22;5620;53.570;9.718;2023-04-25T08:57:27;6.90;78.00
11132;DHT22;5620;53.570;9.718;2023-04-25T08:59:56;6.90;1.00
11132;DHT22;5620;53.570;9.718;2023-04-25T09:02:25;6.80;1.00
11132;DHT22;5620;53.570;9.718;2023-04-25T09:04:52;6.90;99.90
11132;DHT22;5620;53.570;9.718;2023-04-25T09:07:20;7.00;99.90
11132;DHT22;5620;53.570;9.718;2023-04-25T09:09:47;7.30;99.90
11132;DHT22;5620;53.570;9.718;2023-04-25T09:12:13;7.50;99.90
11132;DHT22;5620;53.570;9.718;2023-04-25T09:14:40;7.60;99.90
11132;DHT22;5620;53.570;9.718;2023-04-25T09:17:06;7.70;50.40
11132;DHT22;5620;53.570;9.718;2023-04-25T09:19:35;8.10;1.00
11132;DHT22;5620;53.570;9.718;2023-04-25T09:22:04;8.60;1.00
11132;DHT22;5620;53.570;9.718;2023-04-25T09:24:41;9.40;99.90
11132;DHT22;5620;53.570;9.718;2023-04-25T09:27:10;10.00;99.90
11132;DHT22;5620;53.570;9.718;2023-04-25T09:29:40;9.20;4.00
11132;DHT22;5620;53.570;9.718;2023-04-25T09:32:23;8.30;99.90
11132;DHT22;5620;53.570;9.718;2023-04-25T09:35:07;7.80;1.00
11132;DHT22;5620;53.570;9.718;2023-04-25T09:37:33;7.60;1.00
11132;DHT22;5620;53.570;9.718;2023-04-25T09:40:00;7.50;38.70
11132;DHT22;5620;53.570;9.718;2023-04-25T09:42:27;7.70;99.90
11132;DHT22;5620;53.570;9.718;2023-04-25T09:44:55;7.80;1.00
11132;DHT22;5620;53.570;9.718;2023-04-25T09:47:23;8.10;1.00
11132;DHT22;5620;53.570;9.718;2023-04-25T09:49:50;8.60;99.90
11132;DHT22;5620;53.570;9.718;2023-04-25T09:55:00;10.20;1.00
11132;DHT22;5620;53.570;9.718;2023-04-25T09:57:30;10.90;99.90
11132;DHT22;5620;53.570;9.718;2023-04-25T09:59:55;11.10;1.00
11132;DHT22;5620;53.570;9.718;2023-04-25T10:02:25;11.30;1.00
11132;DHT22;5620;53.570;9.718;2023-04-25T10:04:54;11.40;99.90
11132;DHT22;5620;53.570;9.718;2023-04-25T10:07:23;11.20;63.20
11132;DHT22;5620;53.570;9.718;2023-04-25T10:09:58;10.90;1.00
11132;DHT22;5620;53.570;9.718;2023-04-25T10:12:23;11.20;1.00
11132;DHT22;5620;53.570;9.718;2023-04-25T10:14:49;12.10;1.00
11132;DHT22;5620;53.570;9.718;2023-04-25T10:17:16;12.90;1.00
11132;DHT22;5620;53.570;9.718;2023-04-25T10:19:46;13.50;1.00
11132;DHT22;5620;53.570;9.718;2023-04-25T10:22:29;13.40;99.90
11132;DHT22;5620;53.570;9.718;2023-04-25T10:25:01;13.00;99.90
11132;DHT22;5620;53.570;9.718;2023-04-25T10:27:31;12.80;99.90
11132;DHT22;5620;53.570;9.718;2023-04-25T10:32:55;13.50;99.90
11132;DHT22;5620;53.570;9.718;2023-04-25T10:35:26;13.80;99.90
11132;DHT22;5620;53.570;9.718;2023-04-25T10:38:03;13.90;99.90
11132;DHT22;5620;53.570;9.718;2023-04-25T10:40:30;13.40;99.90
11132;DHT22;5620;53.570;9.718;2023-04-25T10:46:01;12.60;99.90
11132;DHT22;5620;53.570;9.718;2023-04-25T10:48:29;12.50;99.40
11132;DHT22;5620;53.570;9.718;2023-04-25T10:51:08;12.40;96.10
11132;DHT22;5620;53.570;9.718;2023-04-25T10:53:34;12.60;93.70
11132;DHT22;5620;53.570;9.718;2023-04-25T10:56:00;12.80;91.50
11132;DHT22;5620;53.570;9.718;2023-04-25T10:58:26;13.10;89.70
11132;DHT22;5620;53.570;9.718;2023-04-25T11:00:53;13.50;83.00
11132;DHT22;5620;53.570;9.718;2023-04-25T11:03:21;14.30;72.30
11132;DHT22;5620;53.570;9.718;2023-04-25T11:05:48;15.60;48.90
11132;DHT22;5620;53.570;9.718;2023-04-25T11:08:21;16.90;18.80
11132;DHT22;5620;53.570;9.718;2023-04-25T11:10:53;17.40;1.00
11132;DHT22;5620;53.570;9.718;2023-04-25T11:13:20;18.00;1.00
11132;DHT22;5620;53.570;9.718;2023-04-25T11:15:54;19.60;1.00
11132;DHT22;5620;53.570;9.718;2023-04-25T11:18:20;21.80;1.00
11132;DHT22;5620;53.570;9.718;2023-04-25T11:20:47;21.80;1.00
11132;DHT22;5620;53.570;9.718;2023-04-25T11:23:15;19.80;1.00
11132;DHT22;5620;53.570;9.718;2023-04-25T11:25:43;16.60;1.00
11132;DHT22;5620;53.570;9.718;2023-04-25T11:28:10;13.70;1.00
11132;DHT22;5620;53.570;9.718;2023-04-25T11:30:36;12.10;1.00
11132;DHT22;5620;53.570;9.718;2023-04-25T11:33:03;11.40;1.00
11132;DHT22;5620;53.570;9.718;2023-04-25T11:35:29;11.00;1.00
11132;DHT22;5620;53.570;9.718;2023-04-25T11:37:56;10.70;1.00
11132;DHT22;5620;53.570;9.718;2023-04-25T11:40:22;10.70;1.20
11132;DHT22;5620;53.570;9.718;2023-04-25T11:42:49;11.80;16.30
11132;DHT22;5620;53.570;9.718;2023-04-25T11:45:15;13.50;9.00
11132;DHT22;5620;53.570;9.718;2023-04-25T11:47:42;15.80;1.00
11132;DHT22;5620;53.570;9.718;2023-04-25T11:50:09;18.00;1.00
11132;DHT22;5620;53.570;9.718;2023-04-25T11:55:25;21.20;1.00
11132;DHT22;5620;53.570;9.718;2023-04-25T11:57:52;19.40;1.00
11132;DHT22;5620;53.570;9.718;2023-04-25T12:00:21;17.80;1.00
11132;DHT22;5620;53.570;9.718;2023-04-25T12:02:52;18.20;1.00
11132;DHT22;5620;53.570;9.718;2023-04-25T12:05:19;18.70;1.00
11132;DHT22;5620;53.570;9.718;2023-04-25T12:07:45;17.90;1.00
11132;DHT22;5620;53.570;9.718;2023-04-25T12:10:15;17.30;1.00
11132;DHT22;5620;53.570;9.718;2023-04-25T12:12:44;16.40;1.00
11132;DHT22;5620;53.570;9.718;2023-04-25T12:15:25;15.40;1.00
11132;DHT22;5620;53.570;9.718;2023-04-25T12:17:53;14.60;1.00
11132;DHT22;5620;53.570;9.718;2023-04-25T12:20:23;14.00;1.00
11132;DHT22;5620;53.570;9.718;2023-04-25T12:22:50;13.90;1.00
11132;DHT22;5620;53.570;9.718;2023-04-25T12:25:36;14.40;1.00
11132;DHT22;5620;53.570;9.718;2023-04-25T12:28:18;16.50;1.00
11132;DHT22;5620;53.570;9.718;2023-04-25T12:33:38;20.20;1.00
11132;DHT22;5620;53.570;9.718;2023-04-25T12:36:04;21.80;1.00
11132;DHT22;5620;53.570;9.718;2023-04-25T12:38:31;20.20;1.00
11132;DHT22;5620;53.570;9.718;2023-04-25T12:41:01;18.50;1.00
11132;DHT22;5620;53.570;9.718;2023-04-25T12:43:29;16.80;1.00
11132;DHT22;5620;53.570;9.718;2023-04-25T12:45:55;15.50;1.00
11132;DHT22;5620;53.570;9.718;2023-04-25T12:48:21;14.50;1.00
11132;DHT22;5620;53.570;9.718;2023-04-25T12:50:52;14.00;1.00
11132;DHT22;5620;53.570;9.718;2023-04-25T12:53:19;14.70;1.00
11132;DHT22;5620;53.570;9.718;2023-04-25T12:55:47;16.60;1.00
11132;DHT22;5620;53.570;9.718;2023-04-25T12:58:17;16.90;1.00
11132;DHT22;5620;53.570;9.718;2023-04-25T13:00:44;17.60;1.00
11132;DHT22;5620;53.570;9.718;2023-04-25T13:03:12;18.00;1.00
11132;DHT22;5620;53.570;9.718;2023-04-25T13:05:45;17.00;1.00
11132;DHT22;5620;53.570;9.718;2023-04-25T13:08:11;16.00;1.00
11132;DHT22;5620;53.570;9.718;2023-04-25T13:10:38;15.10;1.00
11132;DHT22;5620;53.570;9.718;2023-04-25T13:13:03;14.30;1.00
11132;DHT22;5620;53.570;9.718;2023-04-25T13:15:29;14.10;1.00
11132;DHT22;5620;53.570;9.718;2023-04-25T13:17:55;14.50;1.00
11132;DHT22;5620;53.570;9.718;2023-04-25T13:20:22;15.40;1.00
11132;DHT22;5620;53.570;9.718;2023-04-25T13:22:47;15.60;1.00
11132;DHT22;5620;53.570;9.718;2023-04-25T13:25:15;15.40;1.00
11132;DHT22;5620;53.570;9.718;2023-04-25T13:27:41;17.00;1.00
11132;DHT22;5620;53.570;9.718;2023-04-25T13:30:09;20.30;1.00
11132;DHT22;5620;53.570;9.718;2023-04-25T13:32:35;21.80;1.00
11132;DHT22;5620;53.570;9.718;2023-04-25T13:35:01;21.80;1.00
11132;DHT22;5620;53.570;9.718;2023-04-25T13:37:29;21.40;1.00
11132;DHT22;5620;53.570;9.718;2023-04-25T13:39:55;19.60;1.00
11132;DHT22;5620;53.570;9.718;2023-04-25T13:42:23;17.60;1.00
11132;DHT22;5620;53.570;9.718;2023-04-25T13:44:50;15.50;1.00
11132;DHT22;5620;53.570;9.718;2023-04-25T13:47:15;13.90;1.00
11132;DHT22;5620;53.570;9.718;2023-04-25T13:49:42;12.60;1.00
11132;DHT22;5620;53.570;9.718;2023-04-25T13:52:08;11.80;1.00
11132;DHT22;5620;53.570;9.718;2023-04-25T13:54:34;11.60;1.00
11132;DHT22;5620;53.570;9.718;2023-04-25T13:56:59;13.10;1.00
11132;DHT22;5620;53.570;9.718;2023-04-25T13:59:25;14.70;1.00
11132;DHT22;5620;53.570;9.718;2023-04-25T14:01:52;15.70;1.00
11132;DHT22;5620;53.570;9.718;2023-04-25T14:04:18;15.80;1.00
11132;DHT22;5620;53.570;9.718;2023-04-25T14:06:44;15.40;1.00
11132;DHT22;5620;53.570;9.718;2023-04-25T14:09:10;17.20;1.00
11132;DHT22;5620;53.570;9.718;2023-04-25T14:11:36;20.40;1.00
11132;DHT22;5620;53.570;9.718;2023-04-25T14:14:02;23.20;1.00
11132;DHT22;5620;53.570;9.718;2023-04-25T14:16:29;21.90;1.00
11132;DHT22;5620;53.570;9.718;2023-04-25T14:18:55;19.60;1.00
11132;DHT22;5620;53.570;9.718;2023-04-25T14:21:23;17.30;1.00
11132;DHT22;5620;53.570;9.718;2023-04-25T14:23:51;15.00;1.00
11132;DHT22;5620;53.570;9.718;2023-04-25T14:26:16;13.70;1.00
11132;DHT22;5620;53.570;9.718;2023-04-25T14:28:44;13.00;1.00
11132;DHT22;5620;53.570;9.718;2023-04-25T14:31:11;13.10;1.00
11132;DHT22;5620;53.570;9.718;2023-04-25T14:33:37;15.30;1.00
11132;DHT22;5620;53.570;9.718;2023-04-25T14:36:03;15.90;1.00
11132;DHT22;5620;53.570;9.718;2023-04-25T14:38:30;15.70;1.00
11132;DHT22;5620;53.570;9.718;2023-04-25T14:40:57;15.50;1.00
11132;DHT22;5620;53.570;9.718;2023-04-25T14:43:23;14.70;1.00
11132;DHT22;5620;53.570;9.718;2023-04-25T14:45:49;16.70;1.00
11132;DHT22;5620;53.570;9.718;2023-04-25T14:48:17;19.70;1.00
11132;DHT22;5620;53.570;9.718;2023-04-25T14:50:44;22.70;1.00
11132;DHT22;5620;53.570;9.718;2023-04-25T14:53:10;24.40;1.00
11132;DHT22;5620;53.570;9.718;2023-04-25T14:55:36;22.00;1.00
11132;DHT22;5620;53.570;9.718;2023-04-25T14:58:03;18.70;1.00
11132;DHT22;5620;53.570;9.718;2023-04-25T15:00:29;16.00;1.00
11132;DHT22;5620;53.570;9.718;2023-04-25T15:02:56;13.70;1.00
11132;DHT22;5620;53.570;9.718;2023-04-25T15:05:21;13.00;1.00
11132;DHT22;5620;53.570;9.718;2023-04-25T15:07:48;13.40;1.00
11132;DHT22;5620;53.570;9.718;2023-04-25T15:10:14;14.30;1.00
11132;DHT22;5620;53.570;9.718;2023-04-25T15:12:41;16.30;1.00
11132;DHT22;5620;53.570;9.718;2023-04-25T15:15:10;18.90;1.00
11132;DHT22;5620;53.570;9.718;2023-04-25T15:17:35;21.70;1.00
11132;DHT22;5620;53.570;9.718;2023-04-25T15:20:02;20.40;1.00
11132;DHT22;5620;53.570;9.718;2023-04-25T15:22:28;17.80;1.00
11132;DHT22;5620;53.570;9.718;2023-04-25T15:24:56;15.70;1.00
11132;DHT22;5620;53.570;9.718;2023-04-25T15:27:24;14.40;1.00
11132;DHT22;5620;53.570;9.718;2023-04-25T15:29:49;13.50;1.00
11132;DHT22;5620;53.570;9.718;2023-04-25T15:32:17;13.00;1.00
11132;DHT22;5620;53.570;9.718;2023-04-25T15:34:44;12.70;1.00
11132;DHT22;5620;53.570;9.718;2023-04-25T15:37:10;12.40;1.00
11132;DHT22;5620;53.570;9.718;2023-04-25T15:39:38;12.10;1.00
11132;DHT22;5620;53.570;9.718;2023-04-25T15:42:07;11.70;1.00
11132;DHT22;5620;53.570;9.718;2023-04-25T15:44:33;11.20;1.00
11132;DHT22;5620;53.570;9.718;2023-04-25T15:47:01;10.80;1.00
11132;DHT22;5620;53.570;9.718;2023-04-25T15:49:26;10.60;1.00
11132;DHT22;5620;53.570;9.718;2023-04-25T15:51:53;10.60;1.00
11132;DHT22;5620;53.570;9.718;2023-04-25T15:54:18;10.50;1.00
11132;DHT22;5620;53.570;9.718;2023-04-25T15:56:46;10.70;1.00
11132;DHT22;5620;53.570;9.718;2023-04-25T15:59:12;11.00;1.00
11132;DHT22;5620;53.570;9.718;2023-04-25T16:01:41;12.40;1.00
11132;DHT22;5620;53.570;9.718;2023-04-25T16:04:06;12.40;1.00
11132;DHT22;5620;53.570;9.718;2023-04-25T16:06:32;12.10;1.00
11132;DHT22;5620;53.570;9.718;2023-04-25T16:08:57;12.10;1.00
11132;DHT22;5620;53.570;9.718;2023-04-25T16:11:23;12.00;1.00
11132;DHT22;5620;53.570;9.718;2023-04-25T16:13:49;11.70;1.00
11132;DHT22;5620;53.570;9.718;2023-04-25T16:16:17;11.50;1.00
11132;DHT22;5620;53.570;9.718;2023-04-25T16:18:47;11.50;1.00
11132;DHT22;5620;53.570;9.718;2023-04-25T16:21:14;12.20;1.00
11132;DHT22;5620;53.570;9.718;2023-04-25T16:23:39;16.10;1.00
11132;DHT22;5620;53.570;9.718;2023-04-25T16:26:05;19.50;1.00
11132;DHT22;5620;53.570;9.718;2023-04-25T16:28:30;22.00;1.00
11132;DHT22;5620;53.570;9.718;2023-04-25T16:30:56;23.20;1.00
11132;DHT22;5620;53.570;9.718;2023-04-25T16:33:21;23.90;1.00
11132;DHT22;5620;53.570;9.718;2023-04-25T16:35:47;25.40;1.00
11132;DHT22;5620;53.570;9.718;2023-04-25T16:38:13;26.80;1.00
11132;DHT22;5620;53.570;9.718;2023-04-25T16:40:38;27.10;1.00
11132;DHT22;5620;53.570;9.718;2023-04-25T16:43:06;26.70;1.00
11132;DHT22;5620;53.570;9.718;2023-04-25T16:45:33;27.10;1.00
11132;DHT22;5620;53.570;9.718;2023-04-25T16:47:59;26.40;1.00
11132;DHT22;5620;53.570;9.718;2023-04-25T16:50:26;27.00;1.00